Time;durP1;ratioP1;P1;durP2;ratioP2;P2;SDS_P1;SDS_P2;PMS_P1;PMS_P2;Temp;Humidity;BMP_temperature;BMP_pressure;BME280_temperature;BME280_humidity;BME280_pressure;Samples;Min_cycle;Max_cycle;Signal;HPM_P1;HPM_P2
2021/06/02 03:24:31;;;;;;;16.37;15.37;;;10.80;99.90;;;;;;4948748;28;20481;-69
2021/06/02 03:27:02;;;;;;;17.67;16.57;;;10.70;99.90;;;;;;4952692;29;20451;-68
2021/06/02 03:29:42;;;;;;;16.93;15.87;;;10.70;99.90;;;;;;4952763;29;20452;-68
2021/06/02 03:32:18;;;;;;;16.20;15.30;;;10.70;99.90;;;;;;4950383;29;20462;-68
2021/06/02 03:34:59;;;;;;;16.33;15.33;;;10.70;99.90;;;;;;4951758;29;20452;-68
2021/06/02 03:37:45;;;;;;;17.63;16.53;;;10.60;99.90;;;;;;4951716;29;20454;-68
2021/06/02 03:40:27;;;;;;;17.77;16.77;;;10.50;99.90;;;;;;4951552;29;20456;-68
2021/06/02 03:43:02;;;;;;;16.80;15.80;;;10.50;99.90;;;;;;4952832;28;20460;-68
2021/06/02 03:45:41;;;;;;;18.27;17.03;;;10.50;99.90;;;;;;4955959;29;20459;-68
2021/06/02 03:48:21;;;;;;;16.57;15.03;;;10.50;99.90;;;;;;4955997;29;20947;-68
2021/06/02 03:51:04;;;;;;;18.40;17.17;;;10.40;99.90;;;;;;4955895;29;20533;-68
2021/06/02 03:53:47;;;;;;;16.53;15.43;;;10.40;99.90;;;;;;4955538;28;20456;-68
2021/06/02 03:56:28;;;;;;;19.80;18.00;;;10.40;99.90;;;;;;4955883;29;20464;-68
2021/06/02 03:59:06;;;;;;;18.00;16.53;;;10.40;99.90;;;;;;4955727;28;20459;-68
2021/06/02 04:01:41;;;;;;;18.83;17.63;;;10.40;99.90;;;;;;4955629;29;20480;-68
2021/06/02 04:04:16;;;;;;;17.90;16.80;;;10.40;99.90;;;;;;4955682;29;20455;-68
2021/06/02 04:06:54;;;;;;;17.93;16.40;;;10.50;99.90;;;;;;4955667;29;20460;-68
2021/06/02 04:09:25;;;;;;;18.23;17.03;;;10.60;99.90;;;;;;4955515;29;20482;-67
2021/06/02 04:12:09;;;;;;;19.30;17.77;;;10.60;99.90;;;;;;4953757;28;20451;-68
2021/06/02 04:14:37;;;;;;;17.23;15.93;;;10.70;99.90;;;;;;4955423;29;20456;-68
2021/06/02 04:17:04;;;;;;;17.10;16.10;;;10.70;99.90;;;;;;4955236;29;20453;-68
2021/06/02 04:19:31;;;;;;;18.73;17.50;;;10.70;99.90;;;;;;4955263;29;20455;-68
2021/06/02 04:22:04;;;;;;;18.50;17.40;;;10.80;99.90;;;;;;4954880;29;20495;-68
2021/06/02 04:24:32;;;;;;;19.70;18.00;;;10.90;99.90;;;;;;4955112;29;20973;-68
2021/06/02 04:27:00;;;;;;;18.70;16.80;;;11.00;99.90;;;;;;4955268;29;20455;-68
2021/06/02 04:29:27;;;;;;;17.90;16.70;;;11.30;99.90;;;;;;4955367;29;20827;-68
2021/06/02 04:31:56;;;;;;;16.23;15.23;;;11.80;99.90;;;;;;4955203;29;20445;-68
2021/06/02 04:34:23;;;;;;;16.40;15.40;;;12.40;99.90;;;;;;4955051;29;20448;-68
2021/06/02 04:36:52;;;;;;;17.43;16.23;;;12.80;99.90;;;;;;4955086;28;20445;-69
2021/06/02 04:39:20;;;;;;;16.77;15.53;;;13.10;99.90;;;;;;4954899;28;20456;-68
2021/06/02 04:41:47;;;;;;;16.13;14.93;;;13.40;99.90;;;;;;4954642;29;20492;-68
2021/06/02 04:44:15;;;;;;;18.27;16.77;;;13.80;99.90;;;;;;4954913;29;20460;-69
2021/06/02 04:46:42;;;;;;;18.53;17.30;;;13.90;99.90;;;;;;4955055;28;20452;-68
2021/06/02 04:49:08;;;;;;;17.60;16.40;;;14.00;99.90;;;;;;4954968;29;20515;-68
2021/06/02 04:52:21;;;;;;;17.37;16.30;;;14.20;99.90;;;;;;4954701;28;20961;-69
2021/06/02 04:55:24;;;;;;;17.27;16.37;;;14.60;99.90;;;;;;4954213;28;20452;-68
2021/06/02 04:58:35;;;;;;;17.20;15.90;;;14.90;99.90;;;;;;4954848;29;20464;-68
2021/06/02 05:01:21;;;;;;;15.23;14.43;;;15.30;99.90;;;;;;4954465;29;20515;-68
2021/06/02 05:04:25;;;;;;;15.47;14.47;;;15.40;99.90;;;;;;4943960;28;20823;-68
2021/06/02 05:07:30;;;;;;;15.70;14.90;;;15.40;99.90;;;;;;4954460;29;20950;-68
2021/06/02 05:10:14;;;;;;;14.50;13.70;;;15.50;99.90;;;;;;4954662;29;20456;-68
2021/06/02 05:13:13;;;;;;;15.67;14.10;;;15.60;99.90;;;;;;4954687;29;20440;-68
2021/06/02 05:16:17;;;;;;;14.80;14.03;;;15.50;99.90;;;;;;4954672;29;20468;-68
2021/06/02 05:19:48;;;;;;;14.37;13.33;;;15.70;99.90;;;;;;4954222;28;20452;-69
2021/06/02 05:23:14;;;;;;;15.40;14.60;;;15.90;99.90;;;;;;4947266;28;20515;-68
2021/06/02 05:26:28;;;;;;;15.17;14.27;;;16.10;99.90;;;;;;4954486;29;20452;-68
2021/06/02 05:29:26;;;;;;;16.67;14.93;;;16.10;99.80;;;;;;4954311;29;20452;-68
2021/06/02 05:32:24;;;;;;;14.87;13.97;;;16.40;99.40;;;;;;4954131;29;20457;-68
2021/06/02 05:35:29;;;;;;;15.40;14.30;;;16.60;98.70;;;;;;4953925;29;20507;-68
2021/06/02 05:38:37;;;;;;;15.47;14.60;;;16.80;97.90;;;;;;4954176;29;20457;-68
2021/06/02 05:41:07;;;;;;;15.87;14.73;;;17.10;97.30;;;;;;4953742;29;20820;-68
2021/06/02 05:44:16;;;;;;;15.13;14.33;;;17.40;96.80;;;;;;4953653;28;20491;-69
2021/06/02 05:47:25;;;;;;;14.80;14.10;;;17.40;96.20;;;;;;4953682;28;20448;-68
2021/06/02 05:50:19;;;;;;;14.20;13.50;;;17.50;95.90;;;;;;4953512;28;20459;-69
2021/06/02 05:53:34;;;;;;;14.80;14.10;;;17.30;95.70;;;;;;4953641;29;20955;-68
2021/06/02 05:56:37;;;;;;;15.03;14.30;;;17.40;95.90;;;;;;4953418;29;20445;-69
2021/06/02 05:59:32;;;;;;;13.40;12.80;;;18.00;95.20;;;;;;4953684;29;20456;-69
2021/06/02 06:02:16;;;;;;;15.13;14.10;;;18.30;94.10;;;;;;4953404;29;20531;-69
2021/06/02 06:05:13;;;;;;;14.27;13.57;;;18.60;93.60;;;;;;4953664;29;20809;-69
2021/06/02 06:08:08;;;;;;;15.00;13.87;;;19.00;93.10;;;;;;4952836;29;20484;-69
2021/06/02 06:11:07;;;;;;;17.20;13.70;;;19.20;92.20;;;;;;4953150;29;20970;-69
2021/06/02 06:14:02;;;;;;;14.60;13.90;;;19.40;91.50;;;;;;4953153;29;20459;-69
2021/06/02 06:17:01;;;;;;;14.43;13.60;;;19.20;91.50;;;;;;4953343;29;20858;-69
2021/06/02 06:20:24;;;;;;;16.40;14.97;;;19.30;90.90;;;;;;4949290;29;20465;-69
2021/06/02 06:23:16;;;;;;;15.40;14.30;;;19.40;90.70;;;;;;4952472;28;20503;-69
2021/06/02 06:25:49;;;;;;;14.90;14.20;;;19.40;90.90;;;;;;4953029;29;20452;-69
2021/06/02 06:28:24;;;;;;;14.13;13.40;;;19.70;90.10;;;;;;4952710;29;20467;-69
2021/06/02 06:30:53;;;;;;;14.30;13.40;;;20.00;87.70;;;;;;4952911;29;20955;-69
2021/06/02 06:33:25;;;;;;;14.47;13.57;;;20.40;85.20;;;;;;4952530;28;20464;-68
2021/06/02 06:35:54;;;;;;;14.17;13.57;;;20.90;84.70;;;;;;4952546;29;20456;-68
2021/06/02 06:38:22;;;;;;;12.83;12.30;;;21.30;80.50;;;;;;4952588;29;20884;-68
2021/06/02 06:40:51;;;;;;;14.57;13.57;;;21.10;80.40;;;;;;4952308;29;20453;-68
2021/06/02 06:43:21;;;;;;;16.47;15.27;;;21.20;80.80;;;;;;4952462;29;20491;-68
2021/06/02 06:45:49;;;;;;;14.60;13.80;;;21.20;80.00;;;;;;4952429;29;21056;-68
2021/06/02 06:48:21;;;;;;;16.20;15.13;;;21.20;81.10;;;;;;4952516;29;20460;-69
2021/06/02 06:50:49;;;;;;;14.70;13.80;;;21.10;80.50;;;;;;4952495;29;20455;-69
2021/06/02 06:53:17;;;;;;;15.13;14.13;;;21.10;81.40;;;;;;4952345;29;20456;-69
2021/06/02 06:55:45;;;;;;;14.60;13.83;;;21.20;81.30;;;;;;4952382;29;20456;-69
2021/06/02 06:58:12;;;;;;;14.47;13.77;;;21.20;81.10;;;;;;4952503;29;20515;-69
2021/06/02 07:00:39;;;;;;;14.43;13.73;;;21.60;81.00;;;;;;4952296;29;20867;-69
2021/06/02 07:03:07;;;;;;;14.63;13.97;;;22.10;79.00;;;;;;4952110;29;20800;-69
2021/06/02 07:05:36;;;;;;;14.10;13.43;;;22.40;76.70;;;;;;4952065;29;20449;-69
2021/06/02 07:08:02;;;;;;;13.90;13.20;;;22.30;74.40;;;;;;4952037;29;20896;-68
2021/06/02 07:10:29;;;;;;;14.03;13.20;;;22.40;73.40;;;;;;4952533;29;20474;-69
2021/06/02 07:12:55;;;;;;;14.07;13.30;;;22.80;71.70;;;;;;4952680;28;20455;-69
2021/06/02 07:15:22;;;;;;;13.10;12.50;;;22.70;69.70;;;;;;4952183;29;20459;-68
2021/06/02 07:17:49;;;;;;;12.97;12.37;;;22.40;69.60;;;;;;4951974;28;20495;-68
2021/06/02 07:20:19;;;;;;;13.23;12.43;;;22.50;70.40;;;;;;4952096;29;20453;-68
2021/06/02 07:22:49;;;;;;;14.10;13.40;;;22.90;68.60;;;;;;4951522;28;20496;-69
2021/06/02 07:25:16;;;;;;;13.90;13.20;;;22.90;68.00;;;;;;4952049;29;20459;-69
2021/06/02 07:27:43;;;;;;;14.27;13.67;;;23.20;67.60;;;;;;4952296;29;20456;-69
2021/06/02 07:30:11;;;;;;;15.37;14.30;;;23.60;66.70;;;;;;4952294;29;20460;-69
2021/06/02 07:32:37;;;;;;;17.10;15.30;;;24.40;64.70;;;;;;4952073;28;20460;-69
2021/06/02 07:35:04;;;;;;;15.17;14.27;;;25.30;62.70;;;;;;4952249;29;20452;-69
2021/06/02 07:37:31;;;;;;;15.30;14.60;;;26.10;60.20;;;;;;4951885;29;20457;-69
2021/06/02 07:39:59;;;;;;;15.47;14.67;;;26.80;57.70;;;;;;4952096;29;20463;-69
2021/06/02 07:42:25;;;;;;;16.33;15.53;;;27.40;55.90;;;;;;4952505;29;20539;-69
2021/06/02 07:44:51;;;;;;;16.27;15.00;;;27.60;54.70;;;;;;4952045;29;21021;-69
2021/06/02 07:47:18;;;;;;;15.40;14.30;;;27.90;53.40;;;;;;4951956;28;20456;-69
2021/06/02 07:49:44;;;;;;;15.00;14.30;;;28.40;52.80;;;;;;4951875;29;20455;-69
2021/06/02 07:52:10;;;;;;;15.73;14.93;;;28.90;50.90;;;;;;4951887;29;20451;-69
2021/06/02 07:54:36;;;;;;;15.77;14.87;;;28.90;50.10;;;;;;4951790;29;20456;-69
2021/06/02 07:57:04;;;;;;;15.87;14.80;;;29.10;50.40;;;;;;4951368;28;20463;-69
2021/06/02 07:59:31;;;;;;;17.07;15.70;;;29.80;47.70;;;;;;4951968;29;20456;-69
2021/06/02 08:01:57;;;;;;;15.50;14.80;;;30.10;46.50;;;;;;4952059;29;20492;-69
2021/06/02 08:04:23;;;;;;;16.60;15.60;;;30.20;45.80;;;;;;4951901;28;20468;-69
2021/06/02 08:06:49;;;;;;;17.53;16.33;;;30.30;45.30;;;;;;4951815;28;20456;-70
2021/06/02 08:09:17;;;;;;;16.50;15.73;;;30.90;43.60;;;;;;4951817;29;20452;-69
2021/06/02 08:11:44;;;;;;;16.60;15.90;;;31.00;42.40;;;;;;4951857;28;20448;-69
2021/06/02 08:14:12;;;;;;;15.77;14.73;;;31.40;41.90;;;;;;4952044;29;20452;-70
2021/06/02 08:16:38;;;;;;;16.00;15.00;;;31.70;40.20;;;;;;4951810;29;20464;-69
2021/06/02 08:19:04;;;;;;;14.73;14.13;;;31.70;38.80;;;;;;4951813;28;20464;-70
2021/06/02 08:21:31;;;;;;;16.20;15.20;;;31.70;38.80;;;;;;4951511;29;20488;-70
2021/06/02 08:23:57;;;;;;;16.33;15.20;;;31.00;39.40;;;;;;4951663;29;20542;-70
2021/06/02 08:26:23;;;;;;;14.90;14.20;;;30.80;38.10;;;;;;4951760;29;20449;-69
2021/06/02 08:28:49;;;;;;;13.97;13.27;;;30.40;38.50;;;;;;4951853;28;20482;-70
2021/06/02 08:31:17;;;;;;;15.53;14.77;;;30.40;39.10;;;;;;4954941;28;20465;-69
2021/06/02 08:33:43;;;;;;;15.40;14.33;;;30.60;39.50;;;;;;4955317;28;20456;-69
2021/06/02 08:36:10;;;;;;;15.57;14.80;;;30.50;39.10;;;;;;4955188;28;20468;-70
2021/06/02 08:38:37;;;;;;;14.73;14.03;;;30.20;39.90;;;;;;4954864;29;20492;-70
2021/06/02 08:41:05;;;;;;;16.07;15.13;;;30.00;38.60;;;;;;4954705;29;20531;-69
2021/06/02 08:43:33;;;;;;;14.90;14.20;;;29.80;42.40;;;;;;4954845;28;20452;-69
2021/06/02 08:45:59;;;;;;;15.10;14.40;;;30.20;42.80;;;;;;4954862;29;20457;-69
2021/06/02 08:48:27;;;;;;;15.63;14.67;;;30.10;42.80;;;;;;4954998;29;20476;-69
2021/06/02 08:50:53;;;;;;;15.00;14.30;;;30.60;42.70;;;;;;4954722;29;20804;-69
2021/06/02 08:53:20;;;;;;;15.63;14.80;;;30.30;42.70;;;;;;4954682;29;20463;-70
2021/06/02 08:55:47;;;;;;;15.60;14.80;;;30.30;43.00;;;;;;4954514;29;20444;-69
2021/06/02 08:58:18;;;;;;;15.03;14.43;;;30.50;42.20;;;;;;4954658;28;20456;-69
2021/06/02 09:00:44;;;;;;;15.00;14.30;;;30.90;42.40;;;;;;4954591;29;20457;-70
2021/06/02 09:03:11;;;;;;;15.53;14.93;;;31.40;40.90;;;;;;4954679;29;20575;-70
2021/06/02 09:05:39;;;;;;;16.93;16.13;;;30.70;41.10;;;;;;4954338;29;20453;-69
2021/06/02 09:08:07;;;;;;;15.07;14.37;;;30.80;41.30;;;;;;4954384;28;20456;-70
2021/06/02 09:10:38;;;;;;;15.20;14.60;;;30.70;40.50;;;;;;4954568;29;20488;-70
2021/06/02 09:13:13;;;;;;;15.53;14.93;;;31.00;39.60;;;;;;4954298;29;21057;-69
2021/06/02 09:15:44;;;;;;;15.63;14.73;;;31.40;36.90;;;;;;4954168;29;20577;-69
2021/06/02 09:18:14;;;;;;;15.30;14.70;;;31.60;35.60;;;;;;4954386;29;20504;-69
2021/06/02 09:20:44;;;;;;;15.73;15.03;;;32.10;35.20;;;;;;4954119;29;20468;-70
2021/06/02 09:23:29;;;;;;;15.40;14.60;;;32.30;33.20;;;;;;4953750;28;20571;-70
2021/06/02 09:26:15;;;;;;;15.13;14.60;;;32.60;31.40;;;;;;4954033;28;20519;-70
2021/06/02 09:28:50;;;;;;;16.00;15.40;;;33.20;32.20;;;;;;4953892;28;20965;-70
2021/06/02 09:31:38;;;;;;;15.13;14.53;;;33.60;32.20;;;;;;4953968;29;20443;-70
2021/06/02 09:34:13;;;;;;;15.93;15.33;;;33.60;30.70;;;;;;4953930;28;20792;-70
2021/06/02 09:36:43;;;;;;;15.90;15.30;;;33.80;30.10;;;;;;4954129;29;20531;-70
2021/06/02 09:39:11;;;;;;;16.00;15.30;;;34.30;28.70;;;;;;4954122;29;20520;-70
2021/06/02 09:41:42;;;;;;;16.67;15.87;;;34.70;29.00;;;;;;4953795;28;20492;-70
2021/06/02 09:44:16;;;;;;;15.53;14.93;;;35.20;28.40;;;;;;4954012;29;20464;-70
2021/06/02 09:46:59;;;;;;;16.33;15.63;;;35.30;28.20;;;;;;4953907;28;20507;-70
2021/06/02 09:49:26;;;;;;;15.60;15.00;;;35.50;27.20;;;;;;4953975;28;20564;-70
2021/06/02 09:51:54;;;;;;;15.50;14.80;;;36.50;27.30;;;;;;4953562;29;21005;-70
2021/06/02 09:54:23;;;;;;;17.00;16.30;;;36.30;27.50;;;;;;4953714;29;20507;-69
2021/06/02 09:56:49;;;;;;;16.07;15.50;;;36.30;27.00;;;;;;4953687;28;20484;-69
2021/06/02 09:59:16;;;;;;;15.50;15.00;;;35.70;27.40;;;;;;4953577;29;20826;-69
2021/06/02 10:01:53;;;;;;;16.03;15.43;;;35.50;27.50;;;;;;4953465;29;20506;-70
2021/06/02 10:04:27;;;;;;;16.73;15.60;;;36.00;27.60;;;;;;4953252;29;20463;-70
2021/06/02 10:06:54;;;;;;;16.73;15.83;;;36.20;27.20;;;;;;4953042;29;20453;-70
2021/06/02 10:09:23;;;;;;;15.10;14.60;;;36.50;27.30;;;;;;4952994;29;20460;-69
2021/06/02 10:12:00;;;;;;;15.00;14.50;;;36.60;27.20;;;;;;4953158;29;20946;-69
2021/06/02 10:14:26;;;;;;;16.43;15.83;;;36.60;27.60;;;;;;4953429;29;20544;-70
2021/06/02 10:16:53;;;;;;;16.13;15.43;;;36.60;26.90;;;;;;4953197;29;20457;-69
2021/06/02 10:19:41;;;;;;;15.77;15.17;;;36.80;26.60;;;;;;4952968;29;20461;-70
2021/06/02 10:22:20;;;;;;;16.87;16.17;;;37.00;25.90;;;;;;4952602;28;20513;-70
2021/06/02 10:24:47;;;;;;;16.90;16.20;;;37.10;25.70;;;;;;4952999;29;20506;-70
2021/06/02 10:27:14;;;;;;;16.20;15.47;;;37.10;24.70;;;;;;4952973;28;20456;-70
2021/06/02 10:29:41;;;;;;;14.50;14.00;;;35.90;25.00;;;;;;4953219;29;20508;-70
2021/06/02 10:32:07;;;;;;;16.47;15.77;;;36.20;26.10;;;;;;4953094;29;20445;-70
2021/06/02 10:34:33;;;;;;;16.60;16.00;;;36.40;25.40;;;;;;4952860;29;20457;-70
2021/06/02 10:37:00;;;;;;;18.43;17.53;;;37.10;24.80;;;;;;4952814;29;20463;-70
2021/06/02 10:39:31;;;;;;;16.60;15.80;;;36.80;25.10;;;;;;4952720;29;20453;-70
2021/06/02 10:42:03;;;;;;;16.40;15.70;;;36.60;25.30;;;;;;4952711;29;20495;-70
2021/06/02 10:44:33;;;;;;;17.20;16.37;;;37.10;25.20;;;;;;4952717;29;20456;-69
2021/06/02 10:47:00;;;;;;;16.40;15.70;;;37.20;24.40;;;;;;4952507;28;20908;-69
2021/06/02 10:49:32;;;;;;;16.00;15.30;;;36.30;25.30;;;;;;4952730;29;20451;-70
2021/06/02 10:51:58;;;;;;;16.43;15.73;;;36.50;25.20;;;;;;4952097;28;20452;-69
2021/06/02 10:54:35;;;;;;;15.80;15.20;;;35.90;24.60;;;;;;4952790;28;20452;-69
2021/06/02 10:57:10;;;;;;;16.03;15.43;;;35.80;25.40;;;;;;4952554;29;20946;-69
2021/06/02 10:59:37;;;;;;;19.07;16.10;;;36.10;26.00;;;;;;4952453;29;20464;-70
2021/06/02 11:02:08;;;;;;;16.60;16.00;;;36.60;25.50;;;;;;4952137;29;20488;-70
2021/06/02 11:04:36;;;;;;;16.77;16.07;;;36.90;25.70;;;;;;4952386;29;20484;-69
2021/06/02 11:07:19;;;;;;;17.30;16.40;;;36.90;25.90;;;;;;4952219;29;20475;-69
2021/06/02 11:09:57;;;;;;;16.70;16.03;;;36.90;26.00;;;;;;4952285;29;20460;-69
2021/06/02 11:12:25;;;;;;;16.70;16.10;;;36.50;26.40;;;;;;4952379;29;20547;-70
2021/06/02 11:14:52;;;;;;;16.40;15.70;;;36.70;26.30;;;;;;4952431;29;20464;-70
2021/06/02 11:17:21;;;;;;;17.63;16.67;;;37.70;25.80;;;;;;4952318;29;20498;-70
2021/06/02 11:19:55;;;;;;;17.73;17.03;;;37.90;24.70;;;;;;4952154;28;20487;-70
2021/06/02 11:22:24;;;;;;;17.40;16.70;;;37.40;25.00;;;;;;4951774;29;21045;-70
2021/06/02 11:24:57;;;;;;;17.00;16.40;;;36.20;25.40;;;;;;4952282;29;20448;-70
2021/06/02 11:27:37;;;;;;;16.53;15.93;;;35.50;26.00;;;;;;4952729;29;20559;-70
2021/06/02 11:30:08;;;;;;;17.00;16.20;;;35.00;26.30;;;;;;4952236;29;20574;-69
2021/06/02 11:33:04;;;;;;;16.27;15.57;;;34.50;26.80;;;;;;4952245;29;20455;-69
2021/06/02 11:35:56;;;;;;;16.47;15.83;;;35.30;26.30;;;;;;4952020;29;20481;-69
2021/06/02 11:38:23;;;;;;;17.30;15.93;;;35.10;25.70;;;;;;4952037;29;20840;-69
2021/06/02 11:40:51;;;;;;;15.00;14.40;;;35.00;26.00;;;;;;4952057;29;21005;-69
2021/06/02 11:43:19;;;;;;;15.73;14.73;;;35.10;26.20;;;;;;4951886;29;20492;-69
2021/06/02 11:45:47;;;;;;;15.63;15.03;;;33.90;27.10;;;;;;4951784;29;20456;-69
2021/06/02 11:48:20;;;;;;;14.17;13.63;;;33.00;27.60;;;;;;4951983;29;20555;-69
2021/06/02 11:50:46;;;;;;;15.20;14.30;;;33.50;27.50;;;;;;4951970;29;20484;-70
2021/06/02 11:53:12;;;;;;;15.70;15.10;;;34.20;27.40;;;;;;4951888;29;20449;-69
2021/06/02 11:55:39;;;;;;;16.00;15.30;;;35.20;26.80;;;;;;4951890;29;20456;-70
2021/06/02 11:58:07;;;;;;;15.53;14.93;;;35.20;26.10;;;;;;4951691;29;20457;-69
2021/06/02 12:00:34;;;;;;;16.53;15.80;;;34.80;26.10;;;;;;4951889;29;20456;-69
2021/06/02 12:03:02;;;;;;;14.97;14.37;;;34.90;26.40;;;;;;4951666;28;20492;-69
2021/06/02 12:05:29;;;;;;;14.43;13.93;;;34.80;26.70;;;;;;4954529;29;20511;-70
2021/06/02 12:07:59;;;;;;;14.83;14.23;;;34.30;26.50;;;;;;4955654;29;20495;-69
2021/06/02 12:10:27;;;;;;;16.07;15.40;;;34.10;26.70;;;;;;4955797;29;20456;-69
2021/06/02 12:12:53;;;;;;;15.90;15.10;;;34.00;26.90;;;;;;4955728;29;20782;-69
2021/06/02 12:15:22;;;;;;;16.23;15.30;;;33.80;27.20;;;;;;4955297;29;20456;-69
2021/06/02 12:17:49;;;;;;;15.27;14.67;;;33.00;28.20;;;;;;4955412;28;20452;-69
2021/06/02 12:20:17;;;;;;;15.40;14.90;;;33.10;27.80;;;;;;4955384;29;20457;-69
2021/06/02 12:22:44;;;;;;;16.87;15.60;;;33.30;28.00;;;;;;4955006;29;20507;-69
2021/06/02 12:25:13;;;;;;;16.17;15.50;;;32.90;28.10;;;;;;4955442;29;20479;-69
2021/06/02 12:27:44;;;;;;;15.43;14.77;;;32.90;28.10;;;;;;4955342;29;20829;-70
2021/06/02 12:30:16;;;;;;;15.20;14.50;;;33.20;28.10;;;;;;4955501;29;20456;-69
2021/06/02 12:32:49;;;;;;;15.30;14.80;;;33.50;28.30;;;;;;4955478;29;20456;-69
2021/06/02 12:35:41;;;;;;;15.50;15.00;;;34.20;27.50;;;;;;4955011;29;20963;-69
2021/06/02 12:38:12;;;;;;;16.80;15.67;;;34.70;26.70;;;;;;4941013;28;20475;-68
2021/06/02 12:40:40;;;;;;;16.10;15.50;;;33.40;27.60;;;;;;4955060;29;20453;-69
2021/06/02 12:43:11;;;;;;;14.97;14.47;;;33.30;27.90;;;;;;4954776;28;20484;-69
2021/06/02 12:45:37;;;;;;;16.30;15.63;;;33.90;27.60;;;;;;4954906;28;20952;-69
2021/06/02 12:48:07;;;;;;;15.53;14.80;;;34.40;27.40;;;;;;4954804;29;20511;-69
2021/06/02 12:50:37;;;;;;;15.93;15.30;;;33.90;27.60;;;;;;4954544;28;20448;-69
2021/06/02 12:53:04;;;;;;;15.53;14.47;;;34.20;27.50;;;;;;4954452;29;20954;-69
2021/06/02 12:55:33;;;;;;;15.10;14.47;;;34.20;27.50;;;;;;4954693;29;20456;-69
2021/06/02 12:58:01;;;;;;;15.47;14.87;;;33.10;27.60;;;;;;4954889;29;20456;-69
2021/06/02 13:00:27;;;;;;;15.50;14.90;;;32.80;28.10;;;;;;4954841;28;20456;-69
2021/06/02 13:02:54;;;;;;;15.53;14.83;;;32.70;28.00;;;;;;4954486;29;20538;-69
2021/06/02 13:05:24;;;;;;;14.53;13.90;;;33.30;27.90;;;;;;4954234;29;20834;-68
2021/06/02 13:07:51;;;;;;;13.97;13.40;;;33.20;27.90;;;;;;4954451;29;20460;-69
2021/06/02 13:10:18;;;;;;;15.77;15.00;;;33.40;28.20;;;;;;4954420;29;20452;-68
2021/06/02 13:12:51;;;;;;;16.67;15.70;;;33.30;27.90;;;;;;4954387;28;20484;-69
2021/06/02 13:15:25;;;;;;;16.67;15.97;;;34.10;27.80;;;;;;4954017;28;20464;-68
2021/06/02 13:17:52;;;;;;;16.33;15.70;;;33.90;27.40;;;;;;4954223;28;20794;-68
2021/06/02 13:20:37;;;;;;;16.13;15.50;;;33.80;27.30;;;;;;4954192;29;20483;-68
2021/06/02 13:23:22;;;;;;;14.60;14.00;;;33.20;27.80;;;;;;4953942;29;20504;-68
2021/06/02 13:25:58;;;;;;;15.10;14.37;;;32.60;28.50;;;;;;4954194;28;20511;-68
2021/06/02 13:28:25;;;;;;;14.63;13.80;;;32.50;28.60;;;;;;4954362;29;20448;-68
2021/06/02 13:30:56;;;;;;;15.90;15.00;;;32.20;29.00;;;;;;4954234;29;20507;-68
2021/06/02 13:33:23;;;;;;;15.00;14.37;;;32.30;29.30;;;;;;4953801;28;20959;-68
2021/06/02 13:36:03;;;;;;;15.40;14.70;;;32.30;29.30;;;;;;4953841;29;20460;-68
2021/06/02 13:38:29;;;;;;;14.50;14.00;;;32.20;29.20;;;;;;4954057;28;20448;-68
2021/06/02 13:40:56;;;;;;;15.67;15.17;;;32.60;29.20;;;;;;4954089;29;20452;-68
2021/06/02 13:43:22;;;;;;;16.00;15.40;;;33.60;28.30;;;;;;4953830;29;20484;-68
2021/06/02 13:45:51;;;;;;;15.07;14.37;;;33.40;28.30;;;;;;4953834;29;20901;-68
2021/06/02 13:48:29;;;;;;;15.73;15.10;;;33.30;28.50;;;;;;4953722;29;20576;-68
2021/06/02 13:51:20;;;;;;;15.03;14.33;;;33.10;29.20;;;;;;4954022;29;20463;-68
2021/06/02 13:54:14;;;;;;;14.90;14.40;;;33.00;28.90;;;;;;4953923;29;20464;-68
2021/06/02 13:57:09;;;;;;;14.50;13.80;;;34.10;28.60;;;;;;4954012;28;20601;-68
2021/06/02 13:59:44;;;;;;;13.73;13.27;;;33.90;27.50;;;;;;4953667;29;20814;-69
2021/06/02 14:02:12;;;;;;;14.53;14.03;;;34.00;27.50;;;;;;4953619;29;20484;-68
2021/06/02 14:04:40;;;;;;;14.60;14.10;;;33.80;27.70;;;;;;4953401;29;20444;-68
2021/06/02 14:07:11;;;;;;;14.60;14.03;;;33.60;28.00;;;;;;4953402;28;20449;-68
2021/06/02 14:09:39;;;;;;;14.33;13.73;;;33.40;28.40;;;;;;4953406;29;20463;-68
2021/06/02 14:12:06;;;;;;;15.50;14.90;;;32.50;28.50;;;;;;4953232;29;20453;-69
2021/06/02 14:14:32;;;;;;;15.00;14.50;;;32.60;29.10;;;;;;4953077;29;20483;-68
2021/06/02 14:16:59;;;;;;;14.80;14.20;;;31.90;28.80;;;;;;4953097;28;20504;-68
2021/06/02 14:19:25;;;;;;;13.23;12.73;;;31.90;29.30;;;;;;4953352;29;20459;-68
2021/06/02 14:21:52;;;;;;;15.00;14.40;;;32.20;29.00;;;;;;4952754;29;20492;-68
2021/06/02 14:24:19;;;;;;;15.00;14.50;;;31.50;28.70;;;;;;4951296;28;20464;-68
2021/06/02 14:26:47;;;;;;;14.97;14.47;;;31.00;29.40;;;;;;4952268;28;20464;-68
2021/06/02 14:29:14;;;;;;;14.57;13.97;;;30.80;29.30;;;;;;4953117;29;20457;-68
2021/06/02 14:31:42;;;;;;;14.40;13.80;;;30.50;30.20;;;;;;4953169;29;20823;-68
2021/06/02 14:34:09;;;;;;;14.43;13.93;;;30.20;30.00;;;;;;4953004;28;20942;-68
2021/06/02 14:36:36;;;;;;;14.27;13.60;;;30.40;30.40;;;;;;4952766;28;20464;-68
2021/06/02 14:39:06;;;;;;;13.80;13.30;;;30.70;30.00;;;;;;4952796;29;20449;-68
2021/06/02 14:41:35;;;;;;;14.13;13.27;;;30.40;29.90;;;;;;4952723;29;20492;-69
2021/06/02 14:44:02;;;;;;;14.80;13.90;;;30.50;30.30;;;;;;4952553;29;20456;-68
2021/06/02 14:46:28;;;;;;;14.40;13.80;;;30.40;30.30;;;;;;4952765;29;20453;-68
2021/06/02 14:48:54;;;;;;;14.23;13.57;;;30.70;29.90;;;;;;4952587;29;20449;-68
2021/06/02 14:51:20;;;;;;;13.70;13.20;;;30.90;30.00;;;;;;4952513;29;20448;-68
2021/06/02 14:53:47;;;;;;;14.13;13.60;;;31.10;29.80;;;;;;4952311;29;20826;-69
2021/06/02 14:56:13;;;;;;;14.80;14.20;;;31.30;29.70;;;;;;4952664;28;20452;-68
2021/06/02 14:58:40;;;;;;;14.50;13.80;;;31.10;29.80;;;;;;4952594;29;20831;-69
2021/06/02 15:01:06;;;;;;;14.73;14.23;;;30.70;30.30;;;;;;4952513;28;20460;-68
2021/06/02 15:03:33;;;;;;;14.33;13.70;;;30.00;30.90;;;;;;4952391;29;20492;-69
2021/06/02 15:05:59;;;;;;;14.17;13.47;;;29.70;31.60;;;;;;4952264;29;20815;-68
2021/06/02 15:08:25;;;;;;;13.73;13.13;;;29.20;32.20;;;;;;4952560;29;20457;-68
2021/06/02 15:10:53;;;;;;;14.70;14.03;;;28.80;32.30;;;;;;4952253;29;20448;-68
2021/06/02 15:13:21;;;;;;;14.13;13.53;;;28.50;33.20;;;;;;4952423;28;20653;-68
2021/06/02 15:15:49;;;;;;;14.00;13.50;;;28.50;33.60;;;;;;4952244;29;20460;-68
2021/06/02 15:18:15;;;;;;;15.30;14.07;;;28.40;33.80;;;;;;4952330;29;20456;-68
2021/06/02 15:20:43;;;;;;;14.23;13.53;;;28.30;34.00;;;;;;4952181;29;20456;-68
2021/06/02 15:23:10;;;;;;;13.47;12.97;;;28.20;34.40;;;;;;4952143;29;20551;-69
2021/06/02 15:25:36;;;;;;;14.23;13.43;;;28.20;34.30;;;;;;4952235;28;20943;-69
2021/06/02 15:28:04;;;;;;;13.90;13.40;;;28.00;34.30;;;;;;4951903;29;20460;-69
2021/06/02 15:30:34;;;;;;;13.90;13.40;;;27.70;34.50;;;;;;4952059;29;20871;-69
2021/06/02 15:33:03;;;;;;;14.70;14.10;;;27.70;34.40;;;;;;4952055;29;20456;-69
2021/06/02 15:35:32;;;;;;;13.90;13.30;;;27.70;34.90;;;;;;4951819;29;20448;-68
2021/06/02 15:37:59;;;;;;;16.83;13.47;;;27.60;34.30;;;;;;4952828;28;20456;-68
2021/06/02 15:40:26;;;;;;;13.57;13.03;;;27.50;34.50;;;;;;4956287;29;20456;-68
2021/06/02 15:42:53;;;;;;;13.60;13.00;;;27.50;34.60;;;;;;4955818;29;21024;-68
2021/06/02 15:45:21;;;;;;;12.57;11.97;;;27.50;34.80;;;;;;4955904;29;20811;-68
2021/06/02 15:47:47;;;;;;;13.63;13.03;;;27.50;35.20;;;;;;4955923;29;20460;-68
2021/06/02 15:50:16;;;;;;;13.23;12.53;;;27.50;35.00;;;;;;4955739;29;20943;-68
2021/06/02 15:52:43;;;;;;;13.90;13.40;;;27.60;35.00;;;;;;4955935;28;20467;-68
2021/06/02 15:55:12;;;;;;;12.97;12.53;;;27.50;34.60;;;;;;4955963;29;20456;-68
2021/06/02 15:57:40;;;;;;;13.07;12.50;;;27.50;35.20;;;;;;4955868;28;20482;-68
2021/06/02 16:00:10;;;;;;;12.80;12.40;;;27.30;34.50;;;;;;4955727;29;20456;-68
2021/06/02 16:02:36;;;;;;;13.73;13.17;;;27.30;35.00;;;;;;4955663;28;20862;-69
2021/06/02 16:05:03;;;;;;;13.13;12.63;;;27.30;35.40;;;;;;4955550;29;21050;-68
2021/06/02 16:07:31;;;;;;;12.17;11.67;;;27.40;35.40;;;;;;4955528;29;20589;-68
2021/06/02 16:09:57;;;;;;;12.77;12.27;;;27.40;35.40;;;;;;4955699;29;20456;-68
2021/06/02 16:12:23;;;;;;;13.13;12.63;;;27.40;35.50;;;;;;4955335;29;20448;-68
2021/06/02 16:14:50;;;;;;;13.70;13.20;;;27.30;35.20;;;;;;4955566;29;20452;-69
2021/06/02 16:17:17;;;;;;;13.63;13.03;;;27.20;35.80;;;;;;4954994;29;20456;-68
2021/06/02 16:19:43;;;;;;;14.43;13.53;;;27.30;35.90;;;;;;4954933;29;20479;-69
2021/06/02 16:22:09;;;;;;;14.03;13.43;;;27.30;36.00;;;;;;4955096;28;20496;-68